sensor_id;sensor_type;location;lat;lon;timestamp;temperature;humidity
6462;DHT22;3264;42.862;25.098;2022-10-26T00:00:03;11.10;99.90
6462;DHT22;3264;42.862;25.098;2022-10-26T00:02:32;11.00;99.90
6462;DHT22;3264;42.862;25.098;2022-10-26T00:05:01;11.10;99.90
6462;DHT22;3264;42.862;25.098;2022-10-26T00:07:29;11.00;99.90
6462;DHT22;3264;42.862;25.098;2022-10-26T00:09:57;11.00;99.90
6462;DHT22;3264;42.862;25.098;2022-10-26T00:12:26;11.00;99.90
6462;DHT22;3264;42.862;25.098;2022-10-26T00:14:55;11.00;99.90
6462;DHT22;3264;42.862;25.098;2022-10-26T00:17:24;11.00;99.90
6462;DHT22;3264;42.862;25.098;2022-10-26T00:19:52;10.90;99.90
6462;DHT22;3264;42.862;25.098;2022-10-26T00:22:21;10.90;99.90
6462;DHT22;3264;42.862;25.098;2022-10-26T00:24:49;10.90;99.90
6462;DHT22;3264;42.862;25.098;2022-10-26T00:27:18;11.10;99.90
6462;DHT22;3264;42.862;25.098;2022-10-26T00:29:48;11.10;99.90
6462;DHT22;3264;42.862;25.098;2022-10-26T00:32:33;11.10;99.90
6462;DHT22;3264;42.862;25.098;2022-10-26T00:35:02;11.00;99.90
6462;DHT22;3264;42.862;25.098;2022-10-26T00:37:31;11.00;99.90
6462;DHT22;3264;42.862;25.098;2022-10-26T00:39:58;10.90;99.90
6462;DHT22;3264;42.862;25.098;2022-10-26T00:42:26;11.00;99.90
6462;DHT22;3264;42.862;25.098;2022-10-26T00:45:03;11.00;99.90
6462;DHT22;3264;42.862;25.098;2022-10-26T00:47:36;11.00;99.90
6462;DHT22;3264;42.862;25.098;2022-10-26T00:50:09;10.80;99.90
6462;DHT22;3264;42.862;25.098;2022-10-26T00:52:39;10.90;99.90
6462;DHT22;3264;42.862;25.098;2022-10-26T00:55:10;11.00;99.90
6462;DHT22;3264;42.862;25.098;2022-10-26T00:57:39;11.00;99.90
6462;DHT22;3264;42.862;25.098;2022-10-26T01:00:10;11.40;99.90
6462;DHT22;3264;42.862;25.098;2022-10-26T01:02:39;11.30;99.90
6462;DHT22;3264;42.862;25.098;2022-10-26T01:05:09;11.20;99.90
6462;DHT22;3264;42.862;25.098;2022-10-26T01:07:38;11.00;99.90
6462;DHT22;3264;42.862;25.098;2022-10-26T01:10:08;11.00;99.90
6462;DHT22;3264;42.862;25.098;2022-10-26T01:12:39;11.00;99.90
6462;DHT22;3264;42.862;25.098;2022-10-26T01:15:09;11.00;99.90
6462;DHT22;3264;42.862;25.098;2022-10-26T01:17:51;11.00;99.90
6462;DHT22;3264;42.862;25.098;2022-10-26T01:20:44;10.90;99.90
6462;DHT22;3264;42.862;25.098;2022-10-26T01:23:25;11.00;99.90
6462;DHT22;3264;42.862;25.098;2022-10-26T01:29:17;10.80;99.90
6462;DHT22;3264;42.862;25.098;2022-10-26T01:31:55;10.80;99.90
6462;DHT22;3264;42.862;25.098;2022-10-26T01:34:29;10.90;99.90
6462;DHT22;3264;42.862;25.098;2022-10-26T01:37:07;11.00;99.90
6462;DHT22;3264;42.862;25.098;2022-10-26T01:39:38;11.10;99.90
6462;DHT22;3264;42.862;25.098;2022-10-26T01:42:08;11.10;99.90
6462;DHT22;3264;42.862;25.098;2022-10-26T01:44:40;11.00;99.90
6462;DHT22;3264;42.862;25.098;2022-10-26T01:47:13;10.90;99.90
6462;DHT22;3264;42.862;25.098;2022-10-26T01:49:45;10.90;99.90
6462;DHT22;3264;42.862;25.098;2022-10-26T01:52:14;10.70;99.90
6462;DHT22;3264;42.862;25.098;2022-10-26T01:54:42;10.80;99.90
6462;DHT22;3264;42.862;25.098;2022-10-26T01:57:13;10.70;99.90
6462;DHT22;3264;42.862;25.098;2022-10-26T02:00:00;10.70;99.90
6462;DHT22;3264;42.862;25.098;2022-10-26T02:02:51;10.70;99.90
6462;DHT22;3264;42.862;25.098;2022-10-26T02:05:30;10.70;99.90
6462;DHT22;3264;42.862;25.098;2022-10-26T02:08:11;10.80;99.90
6462;DHT22;3264;42.862;25.098;2022-10-26T02:10:47;10.60;99.90
6462;DHT22;3264;42.862;25.098;2022-10-26T02:13:23;10.60;99.90
6462;DHT22;3264;42.862;25.098;2022-10-26T02:15:58;10.40;99.90
6462;DHT22;3264;42.862;25.098;2022-10-26T02:18:33;10.30;99.90
6462;DHT22;3264;42.862;25.098;2022-10-26T02:21:08;10.20;99.90
6462;DHT22;3264;42.862;25.098;2022-10-26T02:23:40;10.40;99.90
6462;DHT22;3264;42.862;25.098;2022-10-26T02:26:12;10.20;99.90
6462;DHT22;3264;42.862;25.098;2022-10-26T02:28:45;10.30;99.90
6462;DHT22;3264;42.862;25.098;2022-10-26T02:31:15;10.40;99.90
6462;DHT22;3264;42.862;25.098;2022-10-26T02:33:48;10.30;99.90
6462;DHT22;3264;42.862;25.098;2022-10-26T02:36:19;10.20;99.90
6462;DHT22;3264;42.862;25.098;2022-10-26T02:38:50;10.10;99.90
6462;DHT22;3264;42.862;25.098;2022-10-26T02:41:22;10.10;99.90
6462;DHT22;3264;42.862;25.098;2022-10-26T02:43:53;10.00;99.90
6462;DHT22;3264;42.862;25.098;2022-10-26T02:46:25;10.00;99.90
6462;DHT22;3264;42.862;25.098;2022-10-26T02:48:55;10.00;99.90
6462;DHT22;3264;42.862;25.098;2022-10-26T02:51:29;9.80;99.90
6462;DHT22;3264;42.862;25.098;2022-10-26T02:54:07;9.80;99.90
6462;DHT22;3264;42.862;25.098;2022-10-26T02:56:44;9.90;99.90
6462;DHT22;3264;42.862;25.098;2022-10-26T02:59:15;9.90;99.90
6462;DHT22;3264;42.862;25.098;2022-10-26T03:01:45;9.90;99.90
6462;DHT22;3264;42.862;25.098;2022-10-26T03:04:15;9.90;99.90
6462;DHT22;3264;42.862;25.098;2022-10-26T03:06:52;10.00;99.90
6462;DHT22;3264;42.862;25.098;2022-10-26T03:09:21;9.90;99.90
6462;DHT22;3264;42.862;25.098;2022-10-26T03:11:50;9.90;99.90
6462;DHT22;3264;42.862;25.098;2022-10-26T03:14:19;9.90;99.90
6462;DHT22;3264;42.862;25.098;2022-10-26T03:16:48;9.80;99.90
6462;DHT22;3264;42.862;25.098;2022-10-26T03:19:17;9.80;99.90
6462;DHT22;3264;42.862;25.098;2022-10-26T03:21:45;9.80;99.90
6462;DHT22;3264;42.862;25.098;2022-10-26T03:24:13;9.70;99.90
6462;DHT22;3264;42.862;25.098;2022-10-26T03:26:41;9.70;99.90
6462;DHT22;3264;42.862;25.098;2022-10-26T03:29:10;9.80;99.90
6462;DHT22;3264;42.862;25.098;2022-10-26T03:31:37;9.80;99.90
6462;DHT22;3264;42.862;25.098;2022-10-26T03:34:10;9.90;99.90
6462;DHT22;3264;42.862;25.098;2022-10-26T03:36:41;10.00;99.90
6462;DHT22;3264;42.862;25.098;2022-10-26T03:39:08;9.90;99.90
6462;DHT22;3264;42.862;25.098;2022-10-26T03:41:37;9.90;99.90
6462;DHT22;3264;42.862;25.098;2022-10-26T03:44:06;9.80;99.90
6462;DHT22;3264;42.862;25.098;2022-10-26T03:46:33;9.70;99.90
6462;DHT22;3264;42.862;25.098;2022-10-26T03:49:01;9.80;99.90
6462;DHT22;3264;42.862;25.098;2022-10-26T03:51:30;9.80;99.90
6462;DHT22;3264;42.862;25.098;2022-10-26T03:53:59;9.80;99.90
6462;DHT22;3264;42.862;25.098;2022-10-26T03:56:28;9.90;99.90
6462;DHT22;3264;42.862;25.098;2022-10-26T03:58:55;9.80;99.90
6462;DHT22;3264;42.862;25.098;2022-10-26T04:01:23;9.70;99.90
6462;DHT22;3264;42.862;25.098;2022-10-26T04:03:51;9.70;99.90
6462;DHT22;3264;42.862;25.098;2022-10-26T04:06:18;9.70;99.90
6462;DHT22;3264;42.862;25.098;2022-10-26T04:08:46;9.60;99.90
6462;DHT22;3264;42.862;25.098;2022-10-26T04:11:16;9.70;99.90
6462;DHT22;3264;42.862;25.098;2022-10-26T04:13:44;9.70;99.90
6462;DHT22;3264;42.862;25.098;2022-10-26T04:16:12;9.60;99.90
6462;DHT22;3264;42.862;25.098;2022-10-26T04:18:41;9.50;99.90
6462;DHT22;3264;42.862;25.098;2022-10-26T04:21:08;9.40;99.90
6462;DHT22;3264;42.862;25.098;2022-10-26T04:23:36;9.40;99.90
6462;DHT22;3264;42.862;25.098;2022-10-26T04:26:05;9.40;99.90
6462;DHT22;3264;42.862;25.098;2022-10-26T04:28:34;9.40;99.90
6462;DHT22;3264;42.862;25.098;2022-10-26T04:31:02;9.50;99.90
6462;DHT22;3264;42.862;25.098;2022-10-26T04:33:30;9.40;99.90
6462;DHT22;3264;42.862;25.098;2022-10-26T04:35:59;9.20;99.90
6462;DHT22;3264;42.862;25.098;2022-10-26T04:38:27;9.20;99.90
6462;DHT22;3264;42.862;25.098;2022-10-26T04:40:54;9.10;99.90
6462;DHT22;3264;42.862;25.098;2022-10-26T04:43:23;9.20;99.90
6462;DHT22;3264;42.862;25.098;2022-10-26T04:45:55;9.40;99.90
6462;DHT22;3264;42.862;25.098;2022-10-26T04:48:24;9.30;99.90
6462;DHT22;3264;42.862;25.098;2022-10-26T04:50:52;9.30;99.90
6462;DHT22;3264;42.862;25.098;2022-10-26T04:53:21;9.30;99.90
6462;DHT22;3264;42.862;25.098;2022-10-26T04:55:55;9.20;99.90
6462;DHT22;3264;42.862;25.098;2022-10-26T04:58:24;9.10;99.90
6462;DHT22;3264;42.862;25.098;2022-10-26T05:00:52;9.10;99.90
6462;DHT22;3264;42.862;25.098;2022-10-26T05:03:21;9.30;99.90
6462;DHT22;3264;42.862;25.098;2022-10-26T05:05:50;9.10;99.90
6462;DHT22;3264;42.862;25.098;2022-10-26T05:08:18;9.20;99.90
6462;DHT22;3264;42.862;25.098;2022-10-26T05:10:47;9.40;99.90
6462;DHT22;3264;42.862;25.098;2022-10-26T05:13:16;9.50;99.90
6462;DHT22;3264;42.862;25.098;2022-10-26T05:15:44;9.50;99.90
6462;DHT22;3264;42.862;25.098;2022-10-26T05:18:11;9.50;99.90
6462;DHT22;3264;42.862;25.098;2022-10-26T05:20:42;9.60;99.90
6462;DHT22;3264;42.862;25.098;2022-10-26T05:23:11;9.70;99.90
6462;DHT22;3264;42.862;25.098;2022-10-26T05:25:44;9.80;99.90
6462;DHT22;3264;42.862;25.098;2022-10-26T05:28:14;10.10;99.90
6462;DHT22;3264;42.862;25.098;2022-10-26T05:30:43;10.20;99.90
6462;DHT22;3264;42.862;25.098;2022-10-26T05:33:12;10.30;99.90
6462;DHT22;3264;42.862;25.098;2022-10-26T05:35:43;10.30;99.90
6462;DHT22;3264;42.862;25.098;2022-10-26T05:38:13;10.30;99.90
6462;DHT22;3264;42.862;25.098;2022-10-26T05:40:46;10.40;99.90
6462;DHT22;3264;42.862;25.098;2022-10-26T05:43:15;10.40;99.90
6462;DHT22;3264;42.862;25.098;2022-10-26T05:45:45;10.60;99.90
6462;DHT22;3264;42.862;25.098;2022-10-26T05:48:13;11.10;99.90
6462;DHT22;3264;42.862;25.098;2022-10-26T05:50:42;11.30;99.90
6462;DHT22;3264;42.862;25.098;2022-10-26T05:53:09;11.50;99.90
6462;DHT22;3264;42.862;25.098;2022-10-26T05:55:39;11.80;99.90
6462;DHT22;3264;42.862;25.098;2022-10-26T05:58:09;11.90;99.90
6462;DHT22;3264;42.862;25.098;2022-10-26T06:00:45;12.20;99.90
6462;DHT22;3264;42.862;25.098;2022-10-26T06:03:25;12.00;99.90
6462;DHT22;3264;42.862;25.098;2022-10-26T06:06:00;12.20;99.90
6462;DHT22;3264;42.862;25.098;2022-10-26T06:08:29;12.10;99.90
6462;DHT22;3264;42.862;25.098;2022-10-26T06:10:58;12.70;99.90
6462;DHT22;3264;42.862;25.098;2022-10-26T06:13:29;12.70;99.90
6462;DHT22;3264;42.862;25.098;2022-10-26T06:16:06;12.60;99.90
6462;DHT22;3264;42.862;25.098;2022-10-26T06:18:42;13.00;99.90
6462;DHT22;3264;42.862;25.098;2022-10-26T06:21:30;13.40;99.90
6462;DHT22;3264;42.862;25.098;2022-10-26T06:24:05;13.60;99.90
6462;DHT22;3264;42.862;25.098;2022-10-26T06:26:41;13.90;99.90
6462;DHT22;3264;42.862;25.098;2022-10-26T06:29:23;13.80;99.90
6462;DHT22;3264;42.862;25.098;2022-10-26T06:31:55;14.10;99.90
6462;DHT22;3264;42.862;25.098;2022-10-26T06:34:26;14.40;99.90
6462;DHT22;3264;42.862;25.098;2022-10-26T06:36:57;14.60;99.90
6462;DHT22;3264;42.862;25.098;2022-10-26T06:39:27;14.50;99.90
6462;DHT22;3264;42.862;25.098;2022-10-26T06:41:57;14.90;99.90
6462;DHT22;3264;42.862;25.098;2022-10-26T06:44:27;14.60;99.90
6462;DHT22;3264;42.862;25.098;2022-10-26T06:47:02;14.10;99.90
6462;DHT22;3264;42.862;25.098;2022-10-26T06:49:36;14.70;99.90
6462;DHT22;3264;42.862;25.098;2022-10-26T06:52:12;15.40;99.90
6462;DHT22;3264;42.862;25.098;2022-10-26T06:54:47;16.00;99.90
6462;DHT22;3264;42.862;25.098;2022-10-26T06:57:18;15.80;99.90
6462;DHT22;3264;42.862;25.098;2022-10-26T06:59:49;16.40;99.10
6462;DHT22;3264;42.862;25.098;2022-10-26T07:02:19;16.80;99.00
6462;DHT22;3264;42.862;25.098;2022-10-26T07:04:46;16.40;98.30
6462;DHT22;3264;42.862;25.098;2022-10-26T07:07:18;16.40;98.10
6462;DHT22;3264;42.862;25.098;2022-10-26T07:09:48;17.10;97.30
6462;DHT22;3264;42.862;25.098;2022-10-26T07:12:15;17.70;96.50
6462;DHT22;3264;42.862;25.098;2022-10-26T07:14:43;17.70;95.20
6462;DHT22;3264;42.862;25.098;2022-10-26T07:17:12;18.30;95.20
6462;DHT22;3264;42.862;25.098;2022-10-26T07:19:40;18.60;93.90
6462;DHT22;3264;42.862;25.098;2022-10-26T07:22:10;18.80;92.90
6462;DHT22;3264;42.862;25.098;2022-10-26T07:24:39;19.50;93.10
6462;DHT22;3264;42.862;25.098;2022-10-26T07:27:07;19.80;93.30
6462;DHT22;3264;42.862;25.098;2022-10-26T07:29:35;20.00;91.90
6462;DHT22;3264;42.862;25.098;2022-10-26T07:32:04;20.30;91.60
6462;DHT22;3264;42.862;25.098;2022-10-26T07:34:32;20.90;90.40
6462;DHT22;3264;42.862;25.098;2022-10-26T07:37:00;21.20;87.20
6462;DHT22;3264;42.862;25.098;2022-10-26T07:39:28;21.70;85.00
6462;DHT22;3264;42.862;25.098;2022-10-26T07:42:00;22.30;80.60
6462;DHT22;3264;42.862;25.098;2022-10-26T07:44:27;22.40;76.90
6462;DHT22;3264;42.862;25.098;2022-10-26T07:46:55;23.00;76.90
6462;DHT22;3264;42.862;25.098;2022-10-26T07:49:24;23.80;75.40
6462;DHT22;3264;42.862;25.098;2022-10-26T07:51:53;23.70;74.50
6462;DHT22;3264;42.862;25.098;2022-10-26T07:54:21;23.10;70.30
6462;DHT22;3264;42.862;25.098;2022-10-26T07:56:49;24.20;69.70
6462;DHT22;3264;42.862;25.098;2022-10-26T07:59:19;26.70;63.60
6462;DHT22;3264;42.862;25.098;2022-10-26T08:01:46;27.30;54.90
6462;DHT22;3264;42.862;25.098;2022-10-26T08:04:15;28.90;52.80
6462;DHT22;3264;42.862;25.098;2022-10-26T08:06:43;29.80;49.30
6462;DHT22;3264;42.862;25.098;2022-10-26T08:09:12;28.70;45.80
6462;DHT22;3264;42.862;25.098;2022-10-26T08:11:40;27.60;47.60
6462;DHT22;3264;42.862;25.098;2022-10-26T08:14:09;28.20;47.80
6462;DHT22;3264;42.862;25.098;2022-10-26T08:16:39;29.30;47.50
6462;DHT22;3264;42.862;25.098;2022-10-26T08:19:08;29.30;45.10
6462;DHT22;3264;42.862;25.098;2022-10-26T08:21:37;29.20;47.30
6462;DHT22;3264;42.862;25.098;2022-10-26T08:24:06;29.80;47.00
6462;DHT22;3264;42.862;25.098;2022-10-26T08:26:33;29.20;48.00
6462;DHT22;3264;42.862;25.098;2022-10-26T08:29:01;29.60;47.10
6462;DHT22;3264;42.862;25.098;2022-10-26T08:31:29;30.40;45.50
6462;DHT22;3264;42.862;25.098;2022-10-26T08:33:58;30.10;44.40
6462;DHT22;3264;42.862;25.098;2022-10-26T08:36:27;30.00;43.70
6462;DHT22;3264;42.862;25.098;2022-10-26T08:38:56;29.80;44.70
6462;DHT22;3264;42.862;25.098;2022-10-26T08:41:31;30.10;45.20
6462;DHT22;3264;42.862;25.098;2022-10-26T08:44:04;29.30;45.10
6462;DHT22;3264;42.862;25.098;2022-10-26T08:46:36;29.30;44.60
6462;DHT22;3264;42.862;25.098;2022-10-26T08:49:18;29.60;45.20
6462;DHT22;3264;42.862;25.098;2022-10-26T08:51:49;29.50;44.30
6462;DHT22;3264;42.862;25.098;2022-10-26T08:54:22;28.60;44.00
6462;DHT22;3264;42.862;25.098;2022-10-26T08:56:54;28.80;45.20
6462;DHT22;3264;42.862;25.098;2022-10-26T08:59:30;30.10;44.20
6462;DHT22;3264;42.862;25.098;2022-10-26T09:02:01;29.60;44.10
6462;DHT22;3264;42.862;25.098;2022-10-26T09:04:32;28.60;43.80
6462;DHT22;3264;42.862;25.098;2022-10-26T09:07:27;28.40;45.00
6462;DHT22;3264;42.862;25.098;2022-10-26T09:10:03;29.10;44.60
6462;DHT22;3264;42.862;25.098;2022-10-26T09:12:41;29.30;43.00
6462;DHT22;3264;42.862;25.098;2022-10-26T09:15:18;29.10;43.10
6462;DHT22;3264;42.862;25.098;2022-10-26T09:17:56;29.40;43.20
6462;DHT22;3264;42.862;25.098;2022-10-26T09:20:46;29.80;44.00
6462;DHT22;3264;42.862;25.098;2022-10-26T09:23:30;29.60;42.60
6462;DHT22;3264;42.862;25.098;2022-10-26T09:26:12;30.00;42.30
6462;DHT22;3264;42.862;25.098;2022-10-26T09:28:40;29.30;42.70
6462;DHT22;3264;42.862;25.098;2022-10-26T09:31:15;29.70;43.90
6462;DHT22;3264;42.862;25.098;2022-10-26T09:33:44;30.10;43.10
6462;DHT22;3264;42.862;25.098;2022-10-26T09:36:19;29.90;42.90
6462;DHT22;3264;42.862;25.098;2022-10-26T09:38:52;29.40;43.70
6462;DHT22;3264;42.862;25.098;2022-10-26T09:41:25;29.30;43.90
6462;DHT22;3264;42.862;25.098;2022-10-26T09:43:56;29.10;44.20
6462;DHT22;3264;42.862;25.098;2022-10-26T09:46:28;30.20;42.60
6462;DHT22;3264;42.862;25.098;2022-10-26T09:48:59;30.00;44.00
6462;DHT22;3264;42.862;25.098;2022-10-26T09:51:31;29.40;42.10
6462;DHT22;3264;42.862;25.098;2022-10-26T09:54:00;28.30;42.80
6462;DHT22;3264;42.862;25.098;2022-10-26T09:56:30;28.80;44.10
6462;DHT22;3264;42.862;25.098;2022-10-26T09:59:03;28.90;43.60
6462;DHT22;3264;42.862;25.098;2022-10-26T10:01:33;29.00;44.30
6462;DHT22;3264;42.862;25.098;2022-10-26T10:04:18;28.80;43.50
6462;DHT22;3264;42.862;25.098;2022-10-26T10:06:52;29.10;43.10
6462;DHT22;3264;42.862;25.098;2022-10-26T10:09:38;29.10;43.40
6462;DHT22;3264;42.862;25.098;2022-10-26T10:12:18;29.30;43.70
6462;DHT22;3264;42.862;25.098;2022-10-26T10:14:56;29.60;42.90
6462;DHT22;3264;42.862;25.098;2022-10-26T10:17:25;28.60;42.60
6462;DHT22;3264;42.862;25.098;2022-10-26T10:19:54;29.50;43.90
6462;DHT22;3264;42.862;25.098;2022-10-26T10:22:53;28.90;45.10
6462;DHT22;3264;42.862;25.098;2022-10-26T10:25:23;28.50;44.90
6462;DHT22;3264;42.862;25.098;2022-10-26T10:27:53;27.60;44.70
6462;DHT22;3264;42.862;25.098;2022-10-26T10:30:22;27.90;45.60
6462;DHT22;3264;42.862;25.098;2022-10-26T10:33:10;28.10;45.60
6462;DHT22;3264;42.862;25.098;2022-10-26T10:35:45;26.80;45.10
6462;DHT22;3264;42.862;25.098;2022-10-26T10:38:18;27.30;48.20
6462;DHT22;3264;42.862;25.098;2022-10-26T10:40:50;26.30;46.80
6462;DHT22;3264;42.862;25.098;2022-10-26T10:43:20;26.00;47.70
6462;DHT22;3264;42.862;25.098;2022-10-26T10:45:50;25.90;48.20
6462;DHT22;3264;42.862;25.098;2022-10-26T10:48:20;26.20;47.90
6462;DHT22;3264;42.862;25.098;2022-10-26T10:50:52;25.30;48.00
6462;DHT22;3264;42.862;25.098;2022-10-26T10:53:33;26.30;49.70
6462;DHT22;3264;42.862;25.098;2022-10-26T10:56:22;26.10;48.80
6462;DHT22;3264;42.862;25.098;2022-10-26T11:01:47;25.60;49.60
6462;DHT22;3264;42.862;25.098;2022-10-26T11:04:44;24.90;49.30
6462;DHT22;3264;42.862;25.098;2022-10-26T11:07:17;26.00;50.70
6462;DHT22;3264;42.862;25.098;2022-10-26T11:09:49;25.70;47.20
6462;DHT22;3264;42.862;25.098;2022-10-26T11:12:23;25.00;49.60
6462;DHT22;3264;42.862;25.098;2022-10-26T11:14:57;25.30;47.80
6462;DHT22;3264;42.862;25.098;2022-10-26T11:17:30;25.70;47.70
6462;DHT22;3264;42.862;25.098;2022-10-26T11:20:02;25.50;47.20
6462;DHT22;3264;42.862;25.098;2022-10-26T11:22:35;25.10;47.40
6462;DHT22;3264;42.862;25.098;2022-10-26T11:25:10;24.70;48.40
6462;DHT22;3264;42.862;25.098;2022-10-26T11:27:42;24.90;49.60
6462;DHT22;3264;42.862;25.098;2022-10-26T11:30:17;24.70;47.10
6462;DHT22;3264;42.862;25.098;2022-10-26T11:32:49;25.10;49.20
6462;DHT22;3264;42.862;25.098;2022-10-26T11:35:19;24.70;48.30
6462;DHT22;3264;42.862;25.098;2022-10-26T11:37:54;24.70;48.80
6462;DHT22;3264;42.862;25.098;2022-10-26T11:40:28;24.50;47.30
6462;DHT22;3264;42.862;25.098;2022-10-26T11:43:07;23.40;48.30
6462;DHT22;3264;42.862;25.098;2022-10-26T11:45:43;24.30;48.70
6462;DHT22;3264;42.862;25.098;2022-10-26T11:48:21;24.80;48.60
6462;DHT22;3264;42.862;25.098;2022-10-26T11:50:57;25.10;48.20
6462;DHT22;3264;42.862;25.098;2022-10-26T11:53:29;24.90;47.60
6462;DHT22;3264;42.862;25.098;2022-10-26T11:56:02;24.50;49.30
6462;DHT22;3264;42.862;25.098;2022-10-26T11:58:32;24.10;48.30
6462;DHT22;3264;42.862;25.098;2022-10-26T12:01:02;24.00;49.10
6462;DHT22;3264;42.862;25.098;2022-10-26T12:03:33;24.10;49.00
6462;DHT22;3264;42.862;25.098;2022-10-26T12:06:01;24.20;48.50
6462;DHT22;3264;42.862;25.098;2022-10-26T12:08:31;24.10;48.10
6462;DHT22;3264;42.862;25.098;2022-10-26T12:11:08;24.20;50.10
6462;DHT22;3264;42.862;25.098;2022-10-26T12:13:44;24.30;48.40
6462;DHT22;3264;42.862;25.098;2022-10-26T12:16:20;23.80;47.70
6462;DHT22;3264;42.862;25.098;2022-10-26T12:18:51;24.00;49.60
6462;DHT22;3264;42.862;25.098;2022-10-26T12:21:24;23.90;49.50
6462;DHT22;3264;42.862;25.098;2022-10-26T12:23:56;23.90;48.40
6462;DHT22;3264;42.862;25.098;2022-10-26T12:26:55;23.60;48.30
6462;DHT22;3264;42.862;25.098;2022-10-26T12:29:32;23.70;48.70
6462;DHT22;3264;42.862;25.098;2022-10-26T12:32:04;23.70;48.60
6462;DHT22;3264;42.862;25.098;2022-10-26T12:34:57;23.80;48.00
6462;DHT22;3264;42.862;25.098;2022-10-26T12:37:33;23.80;48.40
6462;DHT22;3264;42.862;25.098;2022-10-26T12:40:39;23.50;47.80
6462;DHT22;3264;42.862;25.098;2022-10-26T12:43:34;23.40;47.90
6462;DHT22;3264;42.862;25.098;2022-10-26T12:52:45;23.50;48.20
6462;DHT22;3264;42.862;25.098;2022-10-26T12:58:36;23.20;46.80
6462;DHT22;3264;42.862;25.098;2022-10-26T13:01:22;23.10;47.10
6462;DHT22;3264;42.862;25.098;2022-10-26T13:04:01;23.10;47.70
6462;DHT22;3264;42.862;25.098;2022-10-26T13:06:48;22.80;47.00
6462;DHT22;3264;42.862;25.098;2022-10-26T13:09:23;23.20;47.00
6462;DHT22;3264;42.862;25.098;2022-10-26T13:11:54;23.10;47.00
6462;DHT22;3264;42.862;25.098;2022-10-26T13:14:26;23.20;46.30
6462;DHT22;3264;42.862;25.098;2022-10-26T13:16:56;23.10;45.90
6462;DHT22;3264;42.862;25.098;2022-10-26T13:19:31;22.80;46.70
6462;DHT22;3264;42.862;25.098;2022-10-26T13:22:00;22.80;46.90
6462;DHT22;3264;42.862;25.098;2022-10-26T13:24:29;22.80;46.70
6462;DHT22;3264;42.862;25.098;2022-10-26T13:27:39;22.70;46.30
6462;DHT22;3264;42.862;25.098;2022-10-26T13:33:23;22.70;46.90
6462;DHT22;3264;42.862;25.098;2022-10-26T13:35:54;22.40;46.50
6462;DHT22;3264;42.862;25.098;2022-10-26T13:38:27;22.60;46.30
6462;DHT22;3264;42.862;25.098;2022-10-26T13:41:06;22.80;46.90
6462;DHT22;3264;42.862;25.098;2022-10-26T13:43:35;22.60;46.10
6462;DHT22;3264;42.862;25.098;2022-10-26T13:46:04;22.60;46.20
6462;DHT22;3264;42.862;25.098;2022-10-26T13:48:39;22.60;47.90
6462;DHT22;3264;42.862;25.098;2022-10-26T13:51:15;22.40;47.40
6462;DHT22;3264;42.862;25.098;2022-10-26T13:53:49;22.50;46.50
6462;DHT22;3264;42.862;25.098;2022-10-26T13:56:26;22.50;47.80
6462;DHT22;3264;42.862;25.098;2022-10-26T13:58:59;22.50;47.80
6462;DHT22;3264;42.862;25.098;2022-10-26T14:01:35;22.60;48.20
6462;DHT22;3264;42.862;25.098;2022-10-26T14:04:16;22.50;47.20
6462;DHT22;3264;42.862;25.098;2022-10-26T14:06:48;22.40;48.30
6462;DHT22;3264;42.862;25.098;2022-10-26T14:09:18;22.40;48.00
6462;DHT22;3264;42.862;25.098;2022-10-26T14:11:49;22.10;48.60
6462;DHT22;3264;42.862;25.098;2022-10-26T14:14:21;22.30;48.00
6462;DHT22;3264;42.862;25.098;2022-10-26T14:16:52;22.20;48.30
6462;DHT22;3264;42.862;25.098;2022-10-26T14:19:24;22.20;47.80
6462;DHT22;3264;42.862;25.098;2022-10-26T14:21:52;22.20;47.70
6462;DHT22;3264;42.862;25.098;2022-10-26T14:24:22;22.00;48.20
6462;DHT22;3264;42.862;25.098;2022-10-26T14:26:50;21.90;51.00
6462;DHT22;3264;42.862;25.098;2022-10-26T14:29:20;21.90;49.10
6462;DHT22;3264;42.862;25.098;2022-10-26T14:31:48;21.90;49.70
6462;DHT22;3264;42.862;25.098;2022-10-26T14:34:17;21.80;50.00
6462;DHT22;3264;42.862;25.098;2022-10-26T14:36:49;21.80;49.80
6462;DHT22;3264;42.862;25.098;2022-10-26T14:39:27;21.50;49.10
6462;DHT22;3264;42.862;25.098;2022-10-26T14:41:56;21.30;51.30
6462;DHT22;3264;42.862;25.098;2022-10-26T14:44:27;21.10;50.10
6462;DHT22;3264;42.862;25.098;2022-10-26T14:46:56;21.00;50.10
6462;DHT22;3264;42.862;25.098;2022-10-26T14:49:26;21.00;50.60
6462;DHT22;3264;42.862;25.098;2022-10-26T14:51:57;20.80;51.60
6462;DHT22;3264;42.862;25.098;2022-10-26T14:54:27;20.70;52.40
6462;DHT22;3264;42.862;25.098;2022-10-26T14:56:56;20.50;52.60
6462;DHT22;3264;42.862;25.098;2022-10-26T14:59:30;20.30;54.10
6462;DHT22;3264;42.862;25.098;2022-10-26T15:02:01;20.10;53.90
6462;DHT22;3264;42.862;25.098;2022-10-26T15:04:32;19.80;55.20
6462;DHT22;3264;42.862;25.098;2022-10-26T15:07:15;19.50;55.40
6462;DHT22;3264;42.862;25.098;2022-10-26T15:09:44;19.10;55.50
6462;DHT22;3264;42.862;25.098;2022-10-26T15:12:28;18.90;57.10
6462;DHT22;3264;42.862;25.098;2022-10-26T15:15:06;18.80;58.20
6462;DHT22;3264;42.862;25.098;2022-10-26T15:17:38;18.50;56.60
6462;DHT22;3264;42.862;25.098;2022-10-26T15:20:15;18.30;57.50
6462;DHT22;3264;42.862;25.098;2022-10-26T15:22:52;18.00;58.00
6462;DHT22;3264;42.862;25.098;2022-10-26T15:25:22;17.80;58.50
6462;DHT22;3264;42.862;25.098;2022-10-26T15:27:51;17.60;59.10
6462;DHT22;3264;42.862;25.098;2022-10-26T15:30:24;17.50;58.60
6462;DHT22;3264;42.862;25.098;2022-10-26T15:32:54;17.40;59.30
6462;DHT22;3264;42.862;25.098;2022-10-26T15:35:27;17.10;60.10
6462;DHT22;3264;42.862;25.098;2022-10-26T15:37:57;17.00;59.90
6462;DHT22;3264;42.862;25.098;2022-10-26T15:40:27;16.90;60.20
6462;DHT22;3264;42.862;25.098;2022-10-26T15:42:59;16.90;60.30
6462;DHT22;3264;42.862;25.098;2022-10-26T15:45:30;16.80;61.00
6462;DHT22;3264;42.862;25.098;2022-10-26T15:48:16;16.70;61.00
6462;DHT22;3264;42.862;25.098;2022-10-26T15:50:45;16.50;62.20
6462;DHT22;3264;42.862;25.098;2022-10-26T15:53:18;16.40;62.00
6462;DHT22;3264;42.862;25.098;2022-10-26T15:55:46;16.30;62.60
6462;DHT22;3264;42.862;25.098;2022-10-26T15:58:15;16.30;63.10
6462;DHT22;3264;42.862;25.098;2022-10-26T16:00:43;16.10;62.80
6462;DHT22;3264;42.862;25.098;2022-10-26T16:03:14;15.90;63.40
6462;DHT22;3264;42.862;25.098;2022-10-26T16:05:42;15.90;63.00
6462;DHT22;3264;42.862;25.098;2022-10-26T16:08:12;15.80;63.60
6462;DHT22;3264;42.862;25.098;2022-10-26T16:10:42;15.60;63.60
6462;DHT22;3264;42.862;25.098;2022-10-26T16:13:12;15.60;64.80
6462;DHT22;3264;42.862;25.098;2022-10-26T16:15:40;15.50;65.10
6462;DHT22;3264;42.862;25.098;2022-10-26T16:18:08;15.40;65.30
6462;DHT22;3264;42.862;25.098;2022-10-26T16:20:37;15.30;65.00
6462;DHT22;3264;42.862;25.098;2022-10-26T16:23:05;15.10;65.90
6462;DHT22;3264;42.862;25.098;2022-10-26T16:25:38;15.10;66.30
6462;DHT22;3264;42.862;25.098;2022-10-26T16:28:11;15.00;67.10
6462;DHT22;3264;42.862;25.098;2022-10-26T16:30:40;14.90;67.50
6462;DHT22;3264;42.862;25.098;2022-10-26T16:33:32;14.70;67.70
6462;DHT22;3264;42.862;25.098;2022-10-26T16:36:16;14.70;68.20
6462;DHT22;3264;42.862;25.098;2022-10-26T16:38:44;14.60;69.70